»·PEaware :: N123SJ KSBD-KWHP

N123SJ :: KSBD-KWHP

FLIGHT INFORMATION

Flight Status: Arrived
Operator: Privately registered:
United States
More flights under this callsign
Pilot: Napoleon Ma Jr J. (21170)
Aircraft: CESSNA 172 SKYHAWK
(C172)
More flights by this aircraft type
Origin: KSBD San Bernardino Intl
United States
Destination: KWHP Whiteman
United States
More flights between these airports :: More routes between these airports
Route: +PDZ V186 VNY
File this flight plan on PilotEdge
Remarks:
Altitude:
(Current/Filed)
6,000ft
Speed:
(Current/Filed)
115kts
Departed: 28-Dec-18 06:49 PM
Arrived: 28-Dec-18 07:32 PM
Distance/Time
Traveled:
59nm/0:43
Distance/Time
To Go:
Arrived

Flight Plot

Page will automatically refresh every two minutes.

Flight plan parsing failed; only flown route is shown


Map Options




Map Legend


Flown Route
Filed Route
Departure Airport
Arrival Airport
Navaid (VOR, NDB)
Fix

Horizontal Profiles

Position Reports

Time Latitude Longitude Heading Altitude Ground
Speed
28-Dec-18 18:21 34.102425 -117.224716 93 1146ft 0kts
28-Dec-18 18:22 34.102425 -117.224716 93 1146ft 0kts
28-Dec-18 18:23 34.102425 -117.224716 93 1146ft 0kts
28-Dec-18 18:24 34.102425 -117.224716 93 1146ft 0kts
28-Dec-18 18:25 34.102425 -117.224716 93 1146ft 0kts
28-Dec-18 18:26 34.102425 -117.224716 93 1146ft 0kts
28-Dec-18 18:27 34.102425 -117.224716 93 1146ft 0kts
28-Dec-18 18:28 34.102425 -117.224716 93 1146ft 0kts
28-Dec-18 18:29 34.102425 -117.224716 93 1146ft 0kts
28-Dec-18 18:30 34.102425 -117.224716 93 1146ft 0kts
28-Dec-18 18:31 34.102425 -117.224716 93 1146ft 0kts
28-Dec-18 18:32 34.102425 -117.224716 93 1146ft 0kts
28-Dec-18 18:33 34.102425 -117.224716 93 1146ft 0kts
28-Dec-18 18:34 34.102425 -117.224716 93 1146ft 0kts
28-Dec-18 18:35 34.102425 -117.224717 93 1146ft 0kts
28-Dec-18 18:36 34.102425 -117.224717 93 1146ft 0kts
28-Dec-18 18:37 34.102425 -117.224717 93 1146ft 0kts
28-Dec-18 18:38 34.102425 -117.224717 93 1146ft 0kts
28-Dec-18 18:39 34.102425 -117.224716 93 1146ft 0kts
28-Dec-18 18:40 34.102425 -117.224717 93 1146ft 0kts
28-Dec-18 18:41 34.102413 -117.224701 152 1146ft 0kts
28-Dec-18 18:42 34.101877 -117.224549 182 1146ft 6kts
28-Dec-18 18:43 34.100872 -117.224544 179 1146ft 0kts
28-Dec-18 18:44 34.100546 -117.223389 71 1149ft 11kts
28-Dec-18 18:45 34.100864 -117.219782 159 1159ft 5kts
28-Dec-18 18:46 34.100852 -117.219777 159 1159ft 0kts
28-Dec-18 18:47 34.100180 -117.219605 192 1159ft 16kts
28-Dec-18 18:48 34.093215 -117.237072 249 1762ft 78kts
28-Dec-18 18:49 34.076948 -117.259325 238 2893ft 83kts
28-Dec-18 18:50 34.061400 -117.283391 238 3914ft 91kts
28-Dec-18 18:51 34.046748 -117.308566 247 4931ft 93kts
28-Dec-18 18:52 34.031856 -117.336245 237 5889ft 109kts
28-Dec-18 18:53 34.012441 -117.367773 241 6015ft 112kts
28-Dec-18 18:54 33.992896 -117.398133 235 5987ft 118kts
28-Dec-18 18:55 33.974213 -117.432290 249 5967ft 115kts
28-Dec-18 18:56 33.956068 -117.462362 236 5950ft 109kts
28-Dec-18 18:57 33.940656 -117.492543 247 5941ft 105kts
28-Dec-18 18:58 33.922528 -117.521709 232 5895ft 113kts
28-Dec-18 18:59 33.919219 -117.550360 329 5864ft 86kts
28-Dec-18 19:00 33.932987 -117.573245 283 5881ft 100kts
28-Dec-18 19:01 33.944663 -117.603460 306 5870ft 101kts
28-Dec-18 19:02 33.958291 -117.633737 310 5913ft 102kts
28-Dec-18 19:03 33.968306 -117.668619 295 5908ft 114kts
28-Dec-18 19:04 33.977546 -117.698548 303 5916ft 89kts
28-Dec-18 19:05 33.988243 -117.725236 290 5946ft 83kts
28-Dec-18 19:06 33.996580 -117.751015 298 5972ft 88kts
28-Dec-18 19:07 34.003135 -117.786323 290 6021ft 115kts
28-Dec-18 19:08 34.010656 -117.822042 297 6004ft 103kts
28-Dec-18 19:09 34.021812 -117.853254 298 5985ft 105kts
28-Dec-18 19:10 34.031728 -117.882432 298 6007ft 84kts
28-Dec-18 19:11 34.040594 -117.909190 294 5987ft 88kts
28-Dec-18 19:12 34.048103 -117.937116 297 5990ft 90kts
28-Dec-18 19:13 34.057696 -117.964870 300 6014ft 90kts
28-Dec-18 19:14 34.066530 -117.994578 293 5987ft 97kts
28-Dec-18 19:15 34.074572 -118.025118 296 5982ft 93kts
28-Dec-18 19:16 34.083457 -118.054857 298 5988ft 95kts
28-Dec-18 19:17 34.093127 -118.085071 299 6016ft 96kts
28-Dec-18 19:18 34.102232 -118.115480 299 5966ft 92kts
28-Dec-18 19:19 34.112213 -118.143254 304 5995ft 91kts
28-Dec-18 19:20 34.127665 -118.169187 313 5503ft 94kts
28-Dec-18 19:21 34.143502 -118.194217 313 5008ft 94kts
28-Dec-18 19:22 34.158598 -118.218089 311 4993ft 88kts
28-Dec-18 19:23 34.172918 -118.241902 313 4983ft 87kts
28-Dec-18 19:24 34.185977 -118.266649 310 4981ft 86kts
28-Dec-18 19:25 34.195870 -118.293713 296 4935ft 92kts
28-Dec-18 19:26 34.200289 -118.326358 294 4056ft 94kts
28-Dec-18 19:27 34.208963 -118.354830 297 2994ft 95kts
28-Dec-18 19:28 34.225810 -118.377492 319 1981ft 76kts
28-Dec-18 19:29 34.238761 -118.391825 319 1534ft 58kts
28-Dec-18 19:30 34.251433 -118.405116 320 1153ft 59kts
28-Dec-18 19:31 34.260268 -118.414420 333 996ft 9kts
28-Dec-18 19:32 34.261054 -118.414608 308 999ft 4kts
28-Dec-18 19:33 34.261929 -118.414554 324 1004ft 0kts

Navigation Log

Ident Type
Flight plan parsing failed, navigation log unavailable